sensor_id;sensor_type;location;lat;lon;timestamp;pressure;altitude;pressure_sealevel;temperature;humidity
51452;BME280;37521;52.020;-1.740;2023-10-31T00:00:05;98074.41;;;3.51;100.00
51452;BME280;37521;52.020;-1.740;2023-10-31T00:02:35;98065.53;;;3.55;100.00
51452;BME280;37521;52.020;-1.740;2023-10-31T00:05:04;98069.66;;;3.60;100.00
51452;BME280;37521;52.020;-1.740;2023-10-31T00:07:34;98070.50;;;3.60;100.00
51452;BME280;37521;52.020;-1.740;2023-10-31T00:10:03;98075.88;;;3.57;100.00
51452;BME280;37521;52.020;-1.740;2023-10-31T00:12:32;98082.78;;;3.58;100.00
51452;BME280;37521;52.020;-1.740;2023-10-31T00:15:00;98080.81;;;3.63;100.00
51452;BME280;37521;52.020;-1.740;2023-10-31T00:17:29;98080.50;;;3.69;100.00
51452;BME280;37521;52.020;-1.740;2023-10-31T00:19:57;98083.03;;;3.71;100.00
51452;BME280;37521;52.020;-1.740;2023-10-31T00:22:26;98076.69;;;3.76;100.00
51452;BME280;37521;52.020;-1.740;2023-10-31T00:24:56;98078.97;;;3.82;100.00
51452;BME280;37521;52.020;-1.740;2023-10-31T00:27:24;98079.44;;;3.91;100.00
51452;BME280;37521;52.020;-1.740;2023-10-31T00:29:52;98082.50;;;3.99;100.00
51452;BME280;37521;52.020;-1.740;2023-10-31T00:32:21;98085.44;;;4.10;100.00
51452;BME280;37521;52.020;-1.740;2023-10-31T00:34:49;98086.81;;;4.17;100.00
51452;BME280;37521;52.020;-1.740;2023-10-31T00:37:18;98086.31;;;4.26;100.00
51452;BME280;37521;52.020;-1.740;2023-10-31T00:39:46;98076.31;;;4.34;100.00
51452;BME280;37521;52.020;-1.740;2023-10-31T00:42:16;98083.78;;;4.42;100.00
51452;BME280;37521;52.020;-1.740;2023-10-31T00:44:45;98079.13;;;4.47;100.00
51452;BME280;37521;52.020;-1.740;2023-10-31T00:47:13;98082.25;;;4.54;100.00
51452;BME280;37521;52.020;-1.740;2023-10-31T00:49:42;98079.31;;;4.60;100.00
51452;BME280;37521;52.020;-1.740;2023-10-31T00:52:11;98073.03;;;4.64;100.00
51452;BME280;37521;52.020;-1.740;2023-10-31T00:54:39;98073.69;;;4.68;100.00
51452;BME280;37521;52.020;-1.740;2023-10-31T00:57:09;98074.47;;;4.70;100.00
51452;BME280;37521;52.020;-1.740;2023-10-31T00:59:38;98078.16;;;4.65;100.00
51452;BME280;37521;52.020;-1.740;2023-10-31T01:02:07;98072.94;;;4.65;100.00
51452;BME280;37521;52.020;-1.740;2023-10-31T01:04:35;98073.63;;;4.69;100.00
51452;BME280;37521;52.020;-1.740;2023-10-31T01:07:04;98079.69;;;4.70;100.00
51452;BME280;37521;52.020;-1.740;2023-10-31T01:09:34;98068.22;;;4.72;100.00
51452;BME280;37521;52.020;-1.740;2023-10-31T01:12:03;98068.06;;;4.75;100.00
51452;BME280;37521;52.020;-1.740;2023-10-31T01:14:31;98061.75;;;4.79;100.00
51452;BME280;37521;52.020;-1.740;2023-10-31T01:17:01;98064.19;;;4.82;100.00
51452;BME280;37521;52.020;-1.740;2023-10-31T01:19:30;98065.03;;;4.83;100.00
51452;BME280;37521;52.020;-1.740;2023-10-31T01:21:58;98072.78;;;4.84;100.00
51452;BME280;37521;52.020;-1.740;2023-10-31T01:24:27;98064.19;;;4.82;100.00
51452;BME280;37521;52.020;-1.740;2023-10-31T01:26:55;98071.97;;;4.84;100.00
51452;BME280;37521;52.020;-1.740;2023-10-31T01:29:23;98064.88;;;4.86;100.00
51452;BME280;37521;52.020;-1.740;2023-10-31T01:31:52;98068.31;;;4.86;100.00
51452;BME280;37521;52.020;-1.740;2023-10-31T01:34:29;98073.47;;;4.88;100.00
51452;BME280;37521;52.020;-1.740;2023-10-31T01:36:57;98069.09;;;4.88;100.00
51452;BME280;37521;52.020;-1.740;2023-10-31T01:39:26;98070.00;;;4.87;100.00
51452;BME280;37521;52.020;-1.740;2023-10-31T01:41:54;98067.38;;;4.87;100.00
51452;BME280;37521;52.020;-1.740;2023-10-31T01:44:23;98065.56;;;4.89;100.00
51452;BME280;37521;52.020;-1.740;2023-10-31T01:46:52;98070.69;;;4.91;100.00
51452;BME280;37521;52.020;-1.740;2023-10-31T01:49:20;98069.84;;;4.90;100.00
51452;BME280;37521;52.020;-1.740;2023-10-31T01:51:51;98071.63;;;4.90;100.00
51452;BME280;37521;52.020;-1.740;2023-10-31T01:54:19;98075.00;;;4.92;100.00
51452;BME280;37521;52.020;-1.740;2023-10-31T01:56:48;98071.63;;;4.90;100.00
51452;BME280;37521;52.020;-1.740;2023-10-31T01:59:20;98076.84;;;4.90;100.00
51452;BME280;37521;52.020;-1.740;2023-10-31T02:01:49;98069.09;;;4.88;100.00
51452;BME280;37521;52.020;-1.740;2023-10-31T02:04:18;98066.41;;;4.90;100.00
51452;BME280;37521;52.020;-1.740;2023-10-31T02:06:46;98062.75;;;4.92;100.00
51452;BME280;37521;52.020;-1.740;2023-10-31T02:09:16;98060.00;;;4.96;100.00
51452;BME280;37521;52.020;-1.740;2023-10-31T02:11:44;98072.13;;;4.97;100.00
51452;BME280;37521;52.020;-1.740;2023-10-31T02:14:13;98073.81;;;4.98;100.00
51452;BME280;37521;52.020;-1.740;2023-10-31T02:16:41;98068.41;;;5.01;100.00
51452;BME280;37521;52.020;-1.740;2023-10-31T02:19:10;98077.19;;;5.00;100.00
51452;BME280;37521;52.020;-1.740;2023-10-31T02:21:42;98077.19;;;5.00;100.00
51452;BME280;37521;52.020;-1.740;2023-10-31T02:24:10;98071.13;;;4.99;100.00
51452;BME280;37521;52.020;-1.740;2023-10-31T02:26:39;98079.16;;;4.96;100.00
51452;BME280;37521;52.020;-1.740;2023-10-31T02:29:07;98077.53;;;4.93;100.00
51452;BME280;37521;52.020;-1.740;2023-10-31T02:31:36;98065.38;;;4.92;100.00
51452;BME280;37521;52.020;-1.740;2023-10-31T02:34:04;98070.59;;;4.92;100.00
51452;BME280;37521;52.020;-1.740;2023-10-31T02:36:33;98068.75;;;4.95;100.00
51452;BME280;37521;52.020;-1.740;2023-10-31T02:39:03;98065.38;;;4.92;100.00
51452;BME280;37521;52.020;-1.740;2023-10-31T02:41:31;98063.50;;;4.95;100.00
51452;BME280;37521;52.020;-1.740;2023-10-31T02:44:00;98066.56;;;5.03;100.00
51452;BME280;37521;52.020;-1.740;2023-10-31T02:46:29;98062.34;;;5.16;100.00
51452;BME280;37521;52.020;-1.740;2023-10-31T02:48:57;98059.03;;;5.28;100.00
51452;BME280;37521;52.020;-1.740;2023-10-31T02:51:25;98061.59;;;5.30;100.00
51452;BME280;37521;52.020;-1.740;2023-10-31T02:53:54;98057.94;;;5.32;100.00
51452;BME280;37521;52.020;-1.740;2023-10-31T02:56:24;98054.38;;;5.33;100.00
51452;BME280;37521;52.020;-1.740;2023-10-31T02:58:53;98058.88;;;5.31;100.00
51452;BME280;37521;52.020;-1.740;2023-10-31T03:01:21;98054.72;;;5.27;100.00
51452;BME280;37521;52.020;-1.740;2023-10-31T03:03:50;98055.66;;;5.26;100.00
51452;BME280;37521;52.020;-1.740;2023-10-31T03:06:18;98053.03;;;5.26;100.00
51452;BME280;37521;52.020;-1.740;2023-10-31T03:08:47;98054.72;;;5.27;100.00
51452;BME280;37521;52.020;-1.740;2023-10-31T03:11:24;98054.72;;;5.27;100.00
51452;BME280;37521;52.020;-1.740;2023-10-31T03:13:55;98057.19;;;5.30;100.00
51452;BME280;37521;52.020;-1.740;2023-10-31T03:16:24;98057.94;;;5.32;100.00
51452;BME280;37521;52.020;-1.740;2023-10-31T03:18:53;98056.91;;;5.35;100.00
51452;BME280;37521;52.020;-1.740;2023-10-31T03:21:21;98053.19;;;5.39;100.00
51452;BME280;37521;52.020;-1.740;2023-10-31T03:23:51;98052.94;;;5.43;100.00
51452;BME280;37521;52.020;-1.740;2023-10-31T03:26:24;98058.59;;;5.52;100.00
51452;BME280;37521;52.020;-1.740;2023-10-31T03:28:52;98058.50;;;5.53;100.00
51452;BME280;37521;52.020;-1.740;2023-10-31T03:31:24;98057.50;;;5.56;100.00
51452;BME280;37521;52.020;-1.740;2023-10-31T03:33:53;98057.50;;;5.56;100.00
51452;BME280;37521;52.020;-1.740;2023-10-31T03:36:21;98050.28;;;5.59;100.00
51452;BME280;37521;52.020;-1.740;2023-10-31T03:38:49;98057.69;;;5.67;100.00
51452;BME280;37521;52.020;-1.740;2023-10-31T03:41:18;98060.91;;;5.72;100.00
51452;BME280;37521;52.020;-1.740;2023-10-31T03:43:50;98063.28;;;5.77;100.00
51452;BME280;37521;52.020;-1.740;2023-10-31T03:46:19;98059.72;;;5.78;100.00
51452;BME280;37521;52.020;-1.740;2023-10-31T03:48:47;98059.63;;;5.79;100.00
51452;BME280;37521;52.020;-1.740;2023-10-31T03:51:16;98049.88;;;5.81;100.00
51452;BME280;37521;52.020;-1.740;2023-10-31T03:53:44;98059.53;;;5.81;100.00
51452;BME280;37521;52.020;-1.740;2023-10-31T03:56:13;98055.06;;;5.83;100.00
51452;BME280;37521;52.020;-1.740;2023-10-31T03:58:43;98058.16;;;5.89;100.00
51452;BME280;37521;52.020;-1.740;2023-10-31T04:01:12;98059.69;;;5.93;100.00
51452;BME280;37521;52.020;-1.740;2023-10-31T04:03:41;98056.91;;;5.96;100.00
51452;BME280;37521;52.020;-1.740;2023-10-31T04:06:11;98058.38;;;6.00;100.00
51452;BME280;37521;52.020;-1.740;2023-10-31T04:08:40;98066.00;;;6.05;100.00
51452;BME280;37521;52.020;-1.740;2023-10-31T04:11:08;98056.09;;;6.10;100.00
51452;BME280;37521;52.020;-1.740;2023-10-31T04:13:36;98060.28;;;6.13;100.00
51452;BME280;37521;52.020;-1.740;2023-10-31T04:16:06;98062.81;;;6.14;100.00
51452;BME280;37521;52.020;-1.740;2023-10-31T04:18:36;98060.97;;;6.16;100.00
51452;BME280;37521;52.020;-1.740;2023-10-31T04:21:05;98067.03;;;6.17;100.00
51452;BME280;37521;52.020;-1.740;2023-10-31T04:23:33;98063.50;;;6.18;100.00
51452;BME280;37521;52.020;-1.740;2023-10-31T04:26:04;98078.09;;;6.22;100.00
51452;BME280;37521;52.020;-1.740;2023-10-31T04:28:32;98074.53;;;6.23;100.00
51452;BME280;37521;52.020;-1.740;2023-10-31T04:31:01;98079.50;;;6.27;100.00
51452;BME280;37521;52.020;-1.740;2023-10-31T04:33:29;98082.88;;;6.30;100.00
51452;BME280;37521;52.020;-1.740;2023-10-31T04:35:59;98081.84;;;6.32;100.00
51452;BME280;37521;52.020;-1.740;2023-10-31T04:38:29;98086.06;;;6.35;100.00
51452;BME280;37521;52.020;-1.740;2023-10-31T04:40:57;98088.41;;;6.39;100.00
51452;BME280;37521;52.020;-1.740;2023-10-31T04:43:27;98092.53;;;6.43;100.00
51452;BME280;37521;52.020;-1.740;2023-10-31T04:45:56;98095.91;;;6.45;100.00
51452;BME280;37521;52.020;-1.740;2023-10-31T04:48:24;98097.59;;;6.46;100.00
51452;BME280;37521;52.020;-1.740;2023-10-31T04:50:53;98095.81;;;6.47;100.00
51452;BME280;37521;52.020;-1.740;2023-10-31T04:53:25;98092.06;;;6.51;100.00
51452;BME280;37521;52.020;-1.740;2023-10-31T04:55:53;98091.03;;;6.53;100.00
51452;BME280;37521;52.020;-1.740;2023-10-31T04:58:21;98097.97;;;6.54;100.00
51452;BME280;37521;52.020;-1.740;2023-10-31T05:00:50;98093.50;;;6.57;100.00
51452;BME280;37521;52.020;-1.740;2023-10-31T05:03:18;98091.72;;;6.57;100.00
51452;BME280;37521;52.020;-1.740;2023-10-31T05:05:47;98099.66;;;6.55;100.00
51452;BME280;37521;52.020;-1.740;2023-10-31T05:08:15;98093.09;;;6.48;100.00
51452;BME280;37521;52.020;-1.740;2023-10-31T05:10:45;98100.41;;;6.43;100.00
51452;BME280;37521;52.020;-1.740;2023-10-31T05:13:14;98094.69;;;6.37;100.00
51452;BME280;37521;52.020;-1.740;2023-10-31T05:15:43;98097.00;;;6.27;100.00
51452;BME280;37521;52.020;-1.740;2023-10-31T05:18:11;98098.50;;;6.17;100.00
51452;BME280;37521;52.020;-1.740;2023-10-31T05:20:40;98098.84;;;6.11;100.00
51452;BME280;37521;52.020;-1.740;2023-10-31T05:23:08;98099.94;;;6.07;100.00
51452;BME280;37521;52.020;-1.740;2023-10-31T05:25:37;98107.16;;;6.03;100.00
51452;BME280;37521;52.020;-1.740;2023-10-31T05:28:07;98106.66;;;5.96;100.00
51452;BME280;37521;52.020;-1.740;2023-10-31T05:30:35;98103.28;;;5.94;100.00
51452;BME280;37521;52.020;-1.740;2023-10-31T05:33:04;98107.31;;;6.00;100.00
51452;BME280;37521;52.020;-1.740;2023-10-31T05:35:33;98107.31;;;6.00;100.00
51452;BME280;37521;52.020;-1.740;2023-10-31T05:38:01;98106.31;;;6.03;100.00
51452;BME280;37521;52.020;-1.740;2023-10-31T05:40:30;98112.94;;;6.08;100.00
51452;BME280;37521;52.020;-1.740;2023-10-31T05:43:02;98109.91;;;6.16;100.00
51452;BME280;37521;52.020;-1.740;2023-10-31T05:45:32;98110.47;;;6.21;100.00
51452;BME280;37521;52.020;-1.740;2023-10-31T05:48:01;98108.41;;;6.26;100.00
51452;BME280;37521;52.020;-1.740;2023-10-31T05:50:30;98103.91;;;6.28;100.00
51452;BME280;37521;52.020;-1.740;2023-10-31T05:52:58;98109.75;;;6.33;100.00
51452;BME280;37521;52.020;-1.740;2023-10-31T05:55:27;98108.53;;;6.39;100.00
51452;BME280;37521;52.020;-1.740;2023-10-31T05:57:55;98119.50;;;6.45;100.00
51452;BME280;37521;52.020;-1.740;2023-10-31T06:00:24;98106.97;;;6.50;100.00
51452;BME280;37521;52.020;-1.740;2023-10-31T06:02:54;98120.66;;;6.55;100.00
51452;BME280;37521;52.020;-1.740;2023-10-31T06:05:22;98116.72;;;6.63;100.00
51452;BME280;37521;52.020;-1.740;2023-10-31T06:07:52;98123.66;;;6.64;100.00
51452;BME280;37521;52.020;-1.740;2023-10-31T06:10:20;98125.31;;;6.65;100.00
51452;BME280;37521;52.020;-1.740;2023-10-31T06:12:48;98129.84;;;6.63;100.00
51452;BME280;37521;52.020;-1.740;2023-10-31T06:15:17;98135.81;;;6.65;100.00
51452;BME280;37521;52.020;-1.740;2023-10-31T06:17:45;98130.56;;;6.65;100.00
51452;BME280;37521;52.020;-1.740;2023-10-31T06:20:15;98133.19;;;6.65;100.00
51452;BME280;37521;52.020;-1.740;2023-10-31T06:22:44;98142.94;;;6.63;100.00
51452;BME280;37521;52.020;-1.740;2023-10-31T06:25:12;98146.66;;;6.59;100.00
51452;BME280;37521;52.020;-1.740;2023-10-31T06:27:41;98145.84;;;6.58;100.00
51452;BME280;37521;52.020;-1.740;2023-10-31T06:30:10;98156.31;;;6.58;100.00
51452;BME280;37521;52.020;-1.740;2023-10-31T06:32:42;98159.03;;;6.57;100.00
51452;BME280;37521;52.020;-1.740;2023-10-31T06:35:10;98155.66;;;6.54;100.00
51452;BME280;37521;52.020;-1.740;2023-10-31T06:37:40;98155.75;;;6.53;100.00
51452;BME280;37521;52.020;-1.740;2023-10-31T06:40:09;98156.78;;;6.50;100.00
51452;BME280;37521;52.020;-1.740;2023-10-31T06:42:38;98156.94;;;6.47;100.00
51452;BME280;37521;52.020;-1.740;2023-10-31T06:45:07;98171.84;;;6.47;100.00
51452;BME280;37521;52.020;-1.740;2023-10-31T06:47:35;98183.16;;;6.47;100.00
51452;BME280;37521;52.020;-1.740;2023-10-31T06:50:04;98183.09;;;6.49;100.00
51452;BME280;37521;52.020;-1.740;2023-10-31T06:52:33;98180.38;;;6.50;100.00
51452;BME280;37521;52.020;-1.740;2023-10-31T06:55:03;98182.06;;;6.51;100.00
51452;BME280;37521;52.020;-1.740;2023-10-31T06:57:32;98183.00;;;6.50;100.00
51452;BME280;37521;52.020;-1.740;2023-10-31T07:00:00;98183.84;;;6.51;100.00
51452;BME280;37521;52.020;-1.740;2023-10-31T07:02:29;98186.56;;;6.49;100.00
51452;BME280;37521;52.020;-1.740;2023-10-31T07:04:57;98182.22;;;6.48;100.00
51452;BME280;37521;52.020;-1.740;2023-10-31T07:07:26;98188.50;;;6.46;100.00
51452;BME280;37521;52.020;-1.740;2023-10-31T07:09:54;98188.00;;;6.39;100.00
51452;BME280;37521;52.020;-1.740;2023-10-31T07:12:24;98203.94;;;6.36;100.00
51452;BME280;37521;52.020;-1.740;2023-10-31T07:14:53;98203.09;;;6.36;100.00
51452;BME280;37521;52.020;-1.740;2023-10-31T07:17:21;98202.16;;;6.37;100.00
51452;BME280;37521;52.020;-1.740;2023-10-31T07:19:50;98209.56;;;6.44;100.00
51452;BME280;37521;52.020;-1.740;2023-10-31T07:22:18;98208.75;;;6.58;100.00
51452;BME280;37521;52.020;-1.740;2023-10-31T07:24:47;98220.56;;;6.65;100.00
51452;BME280;37521;52.020;-1.740;2023-10-31T07:27:15;98211.59;;;6.69;100.00
51452;BME280;37521;52.020;-1.740;2023-10-31T07:29:46;98214.03;;;6.72;100.00
51452;BME280;37521;52.020;-1.740;2023-10-31T07:32:15;98210.38;;;6.75;100.00
51452;BME280;37521;52.020;-1.740;2023-10-31T07:34:44;98210.22;;;6.78;100.00
51452;BME280;37521;52.020;-1.740;2023-10-31T07:37:12;98208.31;;;6.80;100.00
51452;BME280;37521;52.020;-1.740;2023-10-31T07:39:41;98209.06;;;6.82;100.00
51452;BME280;37521;52.020;-1.740;2023-10-31T07:42:10;98222.19;;;6.82;100.00
51452;BME280;37521;52.020;-1.740;2023-10-31T07:44:38;98218.47;;;6.86;100.00
51452;BME280;37521;52.020;-1.740;2023-10-31T07:47:08;98209.47;;;6.90;100.00
51452;BME280;37521;52.020;-1.740;2023-10-31T07:49:37;98214.53;;;6.93;100.00
51452;BME280;37521;52.020;-1.740;2023-10-31T07:52:05;98218.75;;;6.96;100.00
51452;BME280;37521;52.020;-1.740;2023-10-31T07:54:34;98222.97;;;6.98;100.00
51452;BME280;37521;52.020;-1.740;2023-10-31T07:57:03;98222.13;;;6.98;100.00
51452;BME280;37521;52.020;-1.740;2023-10-31T07:59:33;98229.25;;;6.96;100.00
51452;BME280;37521;52.020;-1.740;2023-10-31T08:02:01;98225.75;;;6.95;100.00
51452;BME280;37521;52.020;-1.740;2023-10-31T08:04:31;98224.75;;;6.98;100.00
51452;BME280;37521;52.020;-1.740;2023-10-31T08:07:00;98226.25;;;7.02;100.00
51452;BME280;37521;52.020;-1.740;2023-10-31T08:09:29;98227.59;;;7.09;100.00
51452;BME280;37521;52.020;-1.740;2023-10-31T08:11:58;98234.53;;;7.10;100.00
51452;BME280;37521;52.020;-1.740;2023-10-31T08:14:26;98237.13;;;7.10;100.00
51452;BME280;37521;52.020;-1.740;2023-10-31T08:16:55;98236.09;;;7.13;100.00
51452;BME280;37521;52.020;-1.740;2023-10-31T08:19:23;98241.81;;;7.19;100.00
51452;BME280;37521;52.020;-1.740;2023-10-31T08:21:53;98235.53;;;7.22;100.00
51452;BME280;37521;52.020;-1.740;2023-10-31T08:24:24;98243.34;;;7.23;100.00
51452;BME280;37521;52.020;-1.740;2023-10-31T08:26:53;98245.59;;;7.29;100.00
51452;BME280;37521;52.020;-1.740;2023-10-31T08:29:21;98245.13;;;7.37;100.00
51452;BME280;37521;52.020;-1.740;2023-10-31T08:31:50;98223.72;;;7.43;100.00
51452;BME280;37521;52.020;-1.740;2023-10-31T08:34:18;98239.84;;;7.51;100.00
51452;BME280;37521;52.020;-1.740;2023-10-31T08:36:47;98246.50;;;7.57;100.00
51452;BME280;37521;52.020;-1.740;2023-10-31T08:39:17;98245.47;;;7.59;100.00
51452;BME280;37521;52.020;-1.740;2023-10-31T08:41:51;98249.59;;;7.63;100.00
51452;BME280;37521;52.020;-1.740;2023-10-31T08:44:20;98244.03;;;7.68;100.00
51452;BME280;37521;52.020;-1.740;2023-10-31T08:46:49;98251.06;;;7.68;100.00
51452;BME280;37521;52.020;-1.740;2023-10-31T08:49:17;98250.34;;;7.65;100.00
51452;BME280;37521;52.020;-1.740;2023-10-31T08:51:46;98254.06;;;7.61;100.00
51452;BME280;37521;52.020;-1.740;2023-10-31T08:54:16;98251.44;;;7.61;100.00
51452;BME280;37521;52.020;-1.740;2023-10-31T08:56:45;98251.38;;;7.63;100.00
51452;BME280;37521;52.020;-1.740;2023-10-31T08:59:13;98261.50;;;7.69;100.00
51452;BME280;37521;52.020;-1.740;2023-10-31T09:01:42;98264.88;;;7.71;100.00
51452;BME280;37521;52.020;-1.740;2023-10-31T09:04:10;98261.19;;;7.74;100.00
51452;BME280;37521;52.020;-1.740;2023-10-31T09:06:39;98265.34;;;7.78;100.00
51452;BME280;37521;52.020;-1.740;2023-10-31T09:09:07;98252.19;;;7.78;100.00
51452;BME280;37521;52.020;-1.740;2023-10-31T09:11:38;98255.66;;;7.78;100.00
51452;BME280;37521;52.020;-1.740;2023-10-31T09:14:07;98260.09;;;7.78;100.00
51452;BME280;37521;52.020;-1.740;2023-10-31T09:16:35;98260.09;;;7.78;100.00
51452;BME280;37521;52.020;-1.740;2023-10-31T09:19:04;98267.00;;;7.79;100.00
51452;BME280;37521;52.020;-1.740;2023-10-31T09:21:32;98275.75;;;7.79;100.00
51452;BME280;37521;52.020;-1.740;2023-10-31T09:24:01;98274.63;;;7.83;100.00
51452;BME280;37521;52.020;-1.740;2023-10-31T09:26:30;98275.25;;;7.87;100.00
51452;BME280;37521;52.020;-1.740;2023-10-31T09:29:00;98274.25;;;7.89;100.00
51452;BME280;37521;52.020;-1.740;2023-10-31T09:31:28;98277.31;;;7.96;100.00
51452;BME280;37521;52.020;-1.740;2023-10-31T09:33:57;98269.22;;;7.99;100.00
51452;BME280;37521;52.020;-1.740;2023-10-31T09:36:26;98271.66;;;8.02;100.00
51452;BME280;37521;52.020;-1.740;2023-10-31T09:38:54;98265.25;;;8.06;100.00
51452;BME280;37521;52.020;-1.740;2023-10-31T09:41:23;98258.31;;;8.05;100.00
51452;BME280;37521;52.020;-1.740;2023-10-31T09:43:51;98261.69;;;8.07;100.00
51452;BME280;37521;52.020;-1.740;2023-10-31T09:46:22;98265.81;;;8.11;100.00
51452;BME280;37521;52.020;-1.740;2023-10-31T09:48:50;98266.44;;;8.15;100.00
51452;BME280;37521;52.020;-1.740;2023-10-31T09:51:19;98269.28;;;8.12;100.00
51452;BME280;37521;52.020;-1.740;2023-10-31T09:53:50;98273.88;;;8.08;100.00
51452;BME280;37521;52.020;-1.740;2023-10-31T09:56:22;98275.59;;;8.09;100.00
51452;BME280;37521;52.020;-1.740;2023-10-31T09:58:51;98279.69;;;8.13;100.00
51452;BME280;37521;52.020;-1.740;2023-10-31T10:01:21;98281.38;;;8.14;100.00
51452;BME280;37521;52.020;-1.740;2023-10-31T10:03:50;98266.56;;;8.13;100.00
51452;BME280;37521;52.020;-1.740;2023-10-31T10:06:20;98271.63;;;8.16;100.00
51452;BME280;37521;52.020;-1.740;2023-10-31T10:08:50;98267.97;;;8.19;100.00
51452;BME280;37521;52.020;-1.740;2023-10-31T10:11:19;98267.84;;;8.20;100.00
51452;BME280;37521;52.020;-1.740;2023-10-31T10:13:47;98266.00;;;8.23;100.00
51452;BME280;37521;52.020;-1.740;2023-10-31T10:16:31;98278.19;;;8.24;100.00
51452;BME280;37521;52.020;-1.740;2023-10-31T10:19:14;98289.44;;;8.26;100.00
51452;BME280;37521;52.020;-1.740;2023-10-31T10:21:48;98284.91;;;8.28;100.00
51452;BME280;37521;52.020;-1.740;2023-10-31T10:24:19;98290.63;;;8.34;100.00
51452;BME280;37521;52.020;-1.740;2023-10-31T10:26:48;98289.25;;;8.43;100.00
51452;BME280;37521;52.020;-1.740;2023-10-31T10:29:17;98296.63;;;8.51;100.00
51452;BME280;37521;52.020;-1.740;2023-10-31T10:31:47;98295.78;;;8.50;100.00
51452;BME280;37521;52.020;-1.740;2023-10-31T10:34:16;98293.16;;;8.50;100.00
51452;BME280;37521;52.020;-1.740;2023-10-31T10:36:46;98295.13;;;8.46;100.00
51452;BME280;37521;52.020;-1.740;2023-10-31T10:39:18;98301.22;;;8.47;100.00
51452;BME280;37521;52.020;-1.740;2023-10-31T10:41:52;98308.16;;;8.48;100.00
51452;BME280;37521;52.020;-1.740;2023-10-31T10:44:31;98304.59;;;8.49;100.00
51452;BME280;37521;52.020;-1.740;2023-10-31T10:47:03;98301.13;;;8.49;100.00
51452;BME280;37521;52.020;-1.740;2023-10-31T10:49:33;98301.03;;;8.50;100.00
51452;BME280;37521;52.020;-1.740;2023-10-31T10:52:14;98312.31;;;8.52;100.00
51452;BME280;37521;52.020;-1.740;2023-10-31T10:54:48;98315.78;;;8.53;100.00
51452;BME280;37521;52.020;-1.740;2023-10-31T10:57:26;98309.47;;;8.55;100.00
51452;BME280;37521;52.020;-1.740;2023-10-31T10:59:58;98323.81;;;8.64;100.00
51452;BME280;37521;52.020;-1.740;2023-10-31T11:02:32;98319.88;;;8.84;100.00
51452;BME280;37521;52.020;-1.740;2023-10-31T11:05:02;98312.13;;;9.08;100.00
51452;BME280;37521;52.020;-1.740;2023-10-31T11:07:31;98313.31;;;9.16;100.00
51452;BME280;37521;52.020;-1.740;2023-10-31T11:10:01;98317.81;;;9.14;100.00
51452;BME280;37521;52.020;-1.740;2023-10-31T11:12:33;98320.44;;;9.14;100.00
51452;BME280;37521;52.020;-1.740;2023-10-31T11:15:04;98322.25;;;9.14;100.00
51452;BME280;37521;52.020;-1.740;2023-10-31T11:17:38;98320.34;;;9.03;100.00
51452;BME280;37521;52.020;-1.740;2023-10-31T11:20:10;98320.53;;;9.00;100.00
51452;BME280;37521;52.020;-1.740;2023-10-31T11:22:42;98311.91;;;8.98;100.00
51452;BME280;37521;52.020;-1.740;2023-10-31T11:25:14;98328.53;;;8.98;100.00
51452;BME280;37521;52.020;-1.740;2023-10-31T11:27:57;98327.69;;;8.98;100.00
51452;BME280;37521;52.020;-1.740;2023-10-31T11:30:39;98327.03;;;8.94;100.00
51452;BME280;37521;52.020;-1.740;2023-10-31T11:33:13;98320.22;;;8.92;100.00
51452;BME280;37521;52.020;-1.740;2023-10-31T11:35:42;98330.00;;;8.90;100.00
51452;BME280;37521;52.020;-1.740;2023-10-31T11:38:12;98335.88;;;8.93;100.00
51452;BME280;37521;52.020;-1.740;2023-10-31T11:40:58;98340.09;;;8.96;100.00
51452;BME280;37521;52.020;-1.740;2023-10-31T11:43:51;98326.19;;;8.94;100.00
51452;BME280;37521;52.020;-1.740;2023-10-31T11:46:22;98330.44;;;8.96;100.00
51452;BME280;37521;52.020;-1.740;2023-10-31T11:48:54;98321.47;;;8.99;100.00
51452;BME280;37521;52.020;-1.740;2023-10-31T11:51:24;98328.97;;;9.05;100.00
51452;BME280;37521;52.020;-1.740;2023-10-31T11:53:53;98326.97;;;9.09;100.00
51452;BME280;37521;52.020;-1.740;2023-10-31T11:56:22;98322.13;;;9.15;100.00
51452;BME280;37521;52.020;-1.740;2023-10-31T11:58:58;98320.69;;;9.24;100.00
51452;BME280;37521;52.020;-1.740;2023-10-31T12:01:27;98322.91;;;9.30;100.00
51452;BME280;37521;52.020;-1.740;2023-10-31T12:03:57;98316.16;;;9.39;100.00
51452;BME280;37521;52.020;-1.740;2023-10-31T12:06:26;98325.75;;;9.52;100.00
51452;BME280;37521;52.020;-1.740;2023-10-31T12:08:59;98322.28;;;9.52;100.00
51452;BME280;37521;52.020;-1.740;2023-10-31T12:11:28;98334.72;;;9.50;100.00
51452;BME280;37521;52.020;-1.740;2023-10-31T12:13:58;98333.13;;;9.47;100.00
51452;BME280;37521;52.020;-1.740;2023-10-31T12:16:29;98333.41;;;9.43;100.00
51452;BME280;37521;52.020;-1.740;2023-10-31T12:19:00;98326.47;;;9.42;100.00
51452;BME280;37521;52.020;-1.740;2023-10-31T12:21:39;98337.97;;;9.41;100.00
51452;BME280;37521;52.020;-1.740;2023-10-31T12:24:11;98333.66;;;9.40;100.00
51452;BME280;37521;52.020;-1.740;2023-10-31T12:26:41;98340.59;;;9.41;100.00
51452;BME280;37521;52.020;-1.740;2023-10-31T12:29:10;98332.81;;;9.39;100.00
51452;BME280;37521;52.020;-1.740;2023-10-31T12:31:42;98337.22;;;9.39;100.00
51452;BME280;37521;52.020;-1.740;2023-10-31T12:34:13;98330.06;;;9.41;100.00
51452;BME280;37521;52.020;-1.740;2023-10-31T12:36:42;98332.56;;;9.42;100.00
51452;BME280;37521;52.020;-1.740;2023-10-31T12:39:11;98335.03;;;9.45;100.00
51452;BME280;37521;52.020;-1.740;2023-10-31T12:41:41;98336.47;;;9.49;100.00
51452;BME280;37521;52.020;-1.740;2023-10-31T12:44:10;98335.22;;;9.55;100.00
51452;BME280;37521;52.020;-1.740;2023-10-31T12:46:41;98330.72;;;9.57;100.00
51452;BME280;37521;52.020;-1.740;2023-10-31T12:49:13;98337.84;;;9.55;100.00
51452;BME280;37521;52.020;-1.740;2023-10-31T12:51:58;98339.34;;;9.59;100.00
51452;BME280;37521;52.020;-1.740;2023-10-31T12:54:29;98342.09;;;9.58;100.00
51452;BME280;37521;52.020;-1.740;2023-10-31T12:57:02;98331.63;;;9.56;100.00
51452;BME280;37521;52.020;-1.740;2023-10-31T12:59:32;98335.63;;;9.62;100.00
51452;BME280;37521;52.020;-1.740;2023-10-31T13:02:01;98336.81;;;9.70;100.00